Time,TemperatureF,DewpointF,PressureIn,WindDirection,WindDirectionDegrees,WindSpeedMPH,WindSpeedGustMPH,Humidity,HourlyPrecipIn,Conditions,Clouds,dailyrainin,SoftwareType,DateUTC
2013-01-05 00:00:00,47.2,39.7,30.15,NW,322,2.0,4.0,75,0.00,,,0.00,WeatherCatV1.12B45,2013-01-05 08:00:00,
2013-01-05 00:05:00,47.1,39.9,30.15,NW,315,1.0,4.0,76,0.00,,,0.00,WeatherCatV1.12B45,2013-01-05 08:05:00,
2013-01-05 00:10:00,47.1,39.9,30.15,NW,315,1.0,4.0,76,0.00,,,0.00,WeatherCatV1.12B45,2013-01-05 08:10:00,
2013-01-05 00:15:00,47.1,39.9,30.15,NW,315,1.0,4.0,76,0.00,,,0.00,WeatherCatV1.12B45,2013-01-05 08:15:00,
2013-01-05 00:20:00,46.6,39.8,30.15,NW,315,2.0,4.0,77,0.00,,,0.00,WeatherCatV1.12B45,2013-01-05 08:20:00,
2013-01-05 00:25:00,46.6,39.8,30.15,NW,315,2.0,4.0,77,0.00,,,0.00,WeatherCatV1.12B45,2013-01-05 08:25:00,
2013-01-05 00:30:00,46.6,39.8,30.15,NW,315,2.0,4.0,77,0.00,,,0.00,WeatherCatV1.12B45,2013-01-05 08:30:00,
2013-01-05 00:35:00,46.4,39.9,30.14,NW,315,2.0,4.0,78,0.00,,,0.00,WeatherCatV1.12B45,2013-01-05 08:35:00,
2013-01-05 00:40:00,46.4,39.9,30.14,NW,315,2.0,4.0,78,0.00,,,0.00,WeatherCatV1.12B45,2013-01-05 08:40:00,
2013-01-05 00:45:00,46.4,39.9,30.14,NW,315,2.0,4.0,78,0.00,,,0.00,WeatherCatV1.12B45,2013-01-05 08:45:00,
2013-01-05 00:50:00,45.9,39.4,30.15,NNW,338,2.0,5.0,78,0.00,,,0.00,WeatherCatV1.12B45,2013-01-05 08:50:00,
2013-01-05 00:55:00,45.9,39.4,30.15,NNW,338,2.0,5.0,78,0.00,,,0.00,WeatherCatV1.12B45,2013-01-05 08:55:00,
2013-01-05 01:00:00,45.9,39.4,30.15,NNW,338,2.0,5.0,78,0.00,,,0.00,WeatherCatV1.12B45,2013-01-05 09:00:00,
2013-01-05 01:05:00,46.0,39.5,30.15,NW,315,2.0,3.0,78,0.00,,,0.00,WeatherCatV1.12B45,2013-01-05 09:05:00,
2013-01-05 01:10:00,46.0,39.5,30.15,NW,315,2.0,3.0,78,0.00,,,0.00,WeatherCatV1.12B45,2013-01-05 09:10:00,
2013-01-05 01:15:00,46.0,39.5,30.15,NW,315,2.0,3.0,78,0.00,,,0.00,WeatherCatV1.12B45,2013-01-05 09:15:00,
2013-01-05 01:20:00,46.8,42.2,30.15,NW,315,2.0,3.0,84,0.00,,,0.00,WeatherCatV1.12B45,2013-01-05 09:20:00,
2013-01-05 01:25:00,46.8,42.2,30.15,NW,315,2.0,3.0,84,0.00,,,0.00,WeatherCatV1.12B45,2013-01-05 09:25:00,
2013-01-05 01:30:00,46.8,42.2,30.15,NW,315,2.0,3.0,84,0.00,,,0.00,WeatherCatV1.12B45,2013-01-05 09:30:00,
2013-01-05 01:35:00,49.5,41.6,30.15,NW,315,2.0,5.0,74,0.00,,,0.00,WeatherCatV1.12B45,2013-01-05 09:35:00,
2013-01-05 01:40:00,49.5,41.6,30.15,NW,315,2.0,5.0,74,0.00,,,0.00,WeatherCatV1.12B45,2013-01-05 09:40:00,
2013-01-05 01:45:00,49.5,41.6,30.15,NW,315,2.0,5.0,74,0.00,,,0.00,WeatherCatV1.12B45,2013-01-05 09:45:00,
2013-01-05 01:50:00,47.0,39.8,30.15,NNW,338,1.0,4.0,76,0.00,,,0.00,WeatherCatV1.12B45,2013-01-05 09:50:00,
2013-01-05 01:55:00,47.0,39.8,30.15,NNW,338,1.0,4.0,76,0.00,,,0.00,WeatherCatV1.12B45,2013-01-05 09:55:00,
2013-01-05 02:00:00,47.0,39.8,30.15,NNW,338,1.0,4.0,76,0.00,,,0.00,WeatherCatV1.12B45,2013-01-05 10:00:00,
2013-01-05 02:05:00,46.3,39.5,30.16,NNW,338,1.0,3.0,77,0.00,,,0.00,WeatherCatV1.12B45,2013-01-05 10:05:00,
2013-01-05 02:10:00,46.3,39.5,30.16,NNW,338,1.0,3.0,77,0.00,,,0.00,WeatherCatV1.12B45,2013-01-05 10:10:00,
2013-01-05 02:15:00,46.3,39.5,30.16,NNW,338,1.0,3.0,77,0.00,,,0.00,WeatherCatV1.12B45,2013-01-05 10:15:00,
2013-01-05 02:20:00,46.0,39.2,30.15,NNW,338,1.0,4.0,77,0.00,,,0.00,WeatherCatV1.12B45,2013-01-05 10:20:00,
2013-01-05 02:25:00,46.0,39.2,30.15,NNW,338,1.0,4.0,77,0.00,,,0.00,WeatherCatV1.12B45,2013-01-05 10:25:00,
2013-01-05 02:30:00,46.0,39.2,30.15,NNW,338,1.0,4.0,77,0.00,,,0.00,WeatherCatV1.12B45,2013-01-05 10:30:00,
2013-01-05 02:35:00,46.7,39.9,30.15,NNW,338,1.0,3.0,77,0.00,,,0.00,WeatherCatV1.12B45,2013-01-05 10:35:00,
2013-01-05 02:40:00,46.7,39.9,30.15,NNW,338,1.0,3.0,77,0.00,,,0.00,WeatherCatV1.12B45,2013-01-05 10:40:00,
2013-01-05 02:45:00,46.7,39.9,30.15,NNW,338,1.0,3.0,77,0.00,,,0.00,WeatherCatV1.12B45,2013-01-05 10:45:00,
2013-01-05 02:50:00,46.3,39.8,30.16,NNW,338,1.0,3.0,78,0.00,,,0.00,WeatherCatV1.12B45,2013-01-05 10:50:00,
2013-01-05 02:55:00,46.3,39.8,30.16,NNW,338,1.0,3.0,78,0.00,,,0.00,WeatherCatV1.12B45,2013-01-05 10:55:00,
2013-01-05 03:00:00,46.3,39.8,30.16,NNW,338,1.0,3.0,78,0.00,,,0.00,WeatherCatV1.12B45,2013-01-05 11:00:00,
2013-01-05 03:05:00,47.1,40.6,30.16,NNW,338,0.0,1.0,78,0.00,,,0.00,WeatherCatV1.12B45,2013-01-05 11:05:00,
2013-01-05 03:10:00,47.1,40.6,30.16,NNW,338,0.0,1.0,78,0.00,,,0.00,WeatherCatV1.12B45,2013-01-05 11:10:00,
2013-01-05 03:15:00,47.1,40.6,30.16,NNW,338,0.0,1.0,78,0.00,,,0.00,WeatherCatV1.12B45,2013-01-05 11:15:00,
2013-01-05 03:20:00,47.7,41.5,30.16,NNW,338,0.0,1.0,79,0.00,,,0.00,WeatherCatV1.12B45,2013-01-05 11:20:00,
2013-01-05 03:25:00,47.7,41.5,30.16,NNW,338,0.0,1.0,79,0.00,,,0.00,WeatherCatV1.12B45,2013-01-05 11:25:00,
2013-01-05 03:30:00,47.7,41.5,30.16,NNW,338,0.0,1.0,79,0.00,,,0.00,WeatherCatV1.12B45,2013-01-05 11:30:00,
2013-01-05 03:35:00,47.4,40.5,30.16,NE,45,0.0,3.0,77,0.00,,,0.00,WeatherCatV1.12B45,2013-01-05 11:35:00,
2013-01-05 03:40:00,47.4,40.5,30.16,NE,45,0.0,3.0,77,0.00,,,0.00,WeatherCatV1.12B45,2013-01-05 11:40:00,
2013-01-05 03:45:00,47.4,40.5,30.16,NE,45,0.0,3.0,77,0.00,,,0.00,WeatherCatV1.12B45,2013-01-05 11:45:00,
2013-01-05 03:50:00,46.6,40.1,30.16,SSE,158,1.0,5.0,78,0.00,,,0.00,WeatherCatV1.12B45,2013-01-05 11:50:00,
2013-01-05 03:55:00,46.6,40.1,30.16,SSE,158,1.0,5.0,78,0.00,,,0.00,WeatherCatV1.12B45,2013-01-05 11:55:00,
2013-01-05 04:00:00,46.6,40.1,30.16,SSE,158,1.0,5.0,78,0.00,,,0.00,WeatherCatV1.12B45,2013-01-05 12:00:00,
2013-01-05 04:05:00,45.8,39.7,30.16,SSE,158,0.0,2.0,79,0.00,,,0.00,WeatherCatV1.12B45,2013-01-05 12:05:00,
2013-01-05 04:10:00,45.8,39.7,30.16,SSE,158,0.0,2.0,79,0.00,,,0.00,WeatherCatV1.12B45,2013-01-05 12:10:00,
2013-01-05 04:15:00,45.8,39.7,30.16,SSE,158,0.0,2.0,79,0.00,,,0.00,WeatherCatV1.12B45,2013-01-05 12:15:00,
2013-01-05 04:20:00,45.1,39.3,30.16,SSE,158,0.0,2.0,80,0.00,,,0.00,WeatherCatV1.12B45,2013-01-05 12:20:00,
2013-01-05 04:25:00,45.1,39.3,30.16,SSE,158,0.0,2.0,80,0.00,,,0.00,WeatherCatV1.12B45,2013-01-05 12:25:00,
2013-01-05 04:30:00,45.1,39.3,30.16,SSE,158,0.0,2.0,80,0.00,,,0.00,WeatherCatV1.12B45,2013-01-05 12:30:00,
2013-01-05 04:35:00,44.6,39.5,30.16,SSE,158,0.0,1.0,82,0.00,,,0.00,WeatherCatV1.12B45,2013-01-05 12:35:00,
2013-01-05 04:40:00,44.6,39.5,30.16,SSE,158,0.0,1.0,82,0.00,,,0.00,WeatherCatV1.12B45,2013-01-05 12:40:00,
2013-01-05 04:45:00,44.6,39.5,30.16,SSE,158,0.0,1.0,82,0.00,,,0.00,WeatherCatV1.12B45,2013-01-05 12:45:00,
2013-01-05 04:50:00,44.4,39.6,30.16,SSE,158,0.0,0.0,83,0.00,,,0.00,WeatherCatV1.12B45,2013-01-05 12:50:00,
2013-01-05 04:55:00,44.4,39.6,30.16,SSE,158,0.0,0.0,83,0.00,,,0.00,WeatherCatV1.12B45,2013-01-05 12:55:00,
2013-01-05 05:09:00,44.4,39.6,30.16,SSE,158,0.0,0.0,83,0.00,,,0.00,WeatherCatV1.12B45,2013-01-05 13:09:00,
2013-01-05 05:24:00,45.4,40.9,30.17,SSE,150,0.0,2.0,84,0.00,,,0.00,WeatherCatV1.12B45,2013-01-05 13:24:00,
2013-01-05 05:39:00,45.6,42.0,30.16,SE,144,0.0,2.0,87,0.00,,,0.00,WeatherCatV1.12B45,2013-01-05 13:39:00,
2013-01-05 05:54:00,45.7,41.8,30.17,SE,144,0.0,0.0,86,0.00,,,0.00,WeatherCatV1.12B45,2013-01-05 13:54:00,
2013-01-05 06:09:00,46.8,44.3,30.17,SE,144,0.0,0.0,91,0.00,,,0.00,WeatherCatV1.12B45,2013-01-05 14:09:00,
2013-01-05 06:24:00,46.5,42.5,30.17,SE,144,0.0,0.0,86,0.00,,,0.00,WeatherCatV1.12B45,2013-01-05 14:24:00,
2013-01-05 06:39:00,46.4,42.7,30.17,SE,144,0.0,1.0,87,0.00,,,0.00,WeatherCatV1.12B45,2013-01-05 14:39:00,
2013-01-05 06:54:00,45.9,42.0,30.17,SE,144,0.0,0.0,86,0.00,,,0.00,WeatherCatV1.12B45,2013-01-05 14:54:00,
2013-01-05 07:09:00,45.5,41.9,30.17,SE,144,0.0,1.0,87,0.00,,,0.00,WeatherCatV1.12B45,2013-01-05 15:09:00,
2013-01-05 07:24:00,45.5,41.9,30.18,SE,139,0.0,2.0,87,0.00,,,0.00,WeatherCatV1.12B45,2013-01-05 15:24:00,
2013-01-05 07:39:00,45.1,41.8,30.17,SE,139,1.0,4.0,88,0.00,,,0.00,WeatherCatV1.12B45,2013-01-05 15:39:00,
2013-01-05 07:54:00,45.0,42.2,30.18,SE,138,1.0,2.0,90,0.00,,,0.00,WeatherCatV1.12B45,2013-01-05 15:54:00,
2013-01-05 08:09:00,45.4,42.9,30.18,SE,140,0.0,1.0,91,0.00,,,0.00,WeatherCatV1.12B45,2013-01-05 16:09:00,
2013-01-05 08:24:00,46.4,43.9,30.18,SE,140,5.0,5.0,91,0.00,,,0.00,WeatherCatV1.12B45,2013-01-05 16:24:00,
2013-01-05 08:39:00,46.1,43.3,30.18,SE,140,0.0,4.0,90,0.00,,,0.00,WeatherCatV1.12B45,2013-01-05 16:39:00,
2013-01-05 08:54:00,46.5,43.7,30.18,SE,140,0.0,2.0,90,0.00,,,0.00,WeatherCatV1.12B45,2013-01-05 16:54:00,
2013-01-05 09:09:00,46.4,43.6,30.18,SE,139,2.0,6.0,90,0.00,,,0.00,WeatherCatV1.12B45,2013-01-05 17:09:00,
2013-01-05 09:24:00,46.4,43.6,30.18,SE,141,1.0,5.0,90,0.00,,,0.00,WeatherCatV1.12B45,2013-01-05 17:24:00,
2013-01-05 09:39:00,46.2,43.4,30.17,SE,140,0.0,5.0,90,0.00,,,0.00,WeatherCatV1.12B45,2013-01-05 17:39:00,
2013-01-05 09:54:00,46.4,43.9,30.17,SE,130,4.0,5.0,91,0.00,,,0.00,WeatherCatV1.12B45,2013-01-05 17:54:00,
2013-01-05 10:09:00,46.4,43.9,30.14,ESE,103,2.0,9.0,91,0.00,,,0.00,WeatherCatV1.12B45,2013-01-05 18:09:00,
2013-01-05 10:24:00,47.2,45.0,30.15,SE,139,7.0,12.0,92,0.00,,,0.00,WeatherCatV1.12B45,2013-01-05 18:24:00,
2013-01-05 10:39:00,48.0,45.8,30.16,SE,138,4.0,6.0,92,0.00,,,0.00,WeatherCatV1.12B45,2013-01-05 18:39:00,
2013-01-05 10:54:00,48.7,45.9,30.16,SE,138,0.0,4.0,90,0.00,,,0.00,WeatherCatV1.12B45,2013-01-05 18:54:00,
2013-01-05 11:09:00,49.0,45.6,30.15,SE,138,4.0,4.0,88,0.00,,,0.00,WeatherCatV1.12B45,2013-01-05 19:09:00,
2013-01-05 11:24:00,49.9,46.2,30.15,SE,138,5.0,5.0,87,0.00,,,0.00,WeatherCatV1.12B45,2013-01-05 19:24:00,
2013-01-05 11:39:00,49.7,45.7,30.14,SE,138,0.0,1.0,86,0.00,,,0.00,WeatherCatV1.12B45,2013-01-05 19:39:00,
2013-01-05 11:54:00,50.3,46.3,30.13,SE,138,1.0,4.0,86,0.00,,,0.00,WeatherCatV1.12B45,2013-01-05 19:54:00,
2013-01-05 12:09:00,50.9,46.2,30.12,SE,138,4.0,6.0,84,0.00,,,0.00,WeatherCatV1.12B45,2013-01-05 20:09:00,
2013-01-05 12:24:00,49.8,45.5,30.11,SE,138,0.0,2.0,85,0.00,,,0.00,WeatherCatV1.12B45,2013-01-05 20:24:00,
2013-01-05 12:39:00,50.0,46.0,30.11,SE,138,0.0,5.0,86,0.00,,,0.00,WeatherCatV1.12B45,2013-01-05 20:39:00,
2013-01-05 12:54:00,50.3,46.3,30.10,SE,138,1.0,2.0,86,0.00,,,0.00,WeatherCatV1.12B45,2013-01-05 20:54:00,
2013-01-05 13:09:00,50.6,46.3,30.09,SE,138,0.0,1.0,85,0.00,,,0.00,WeatherCatV1.12B45,2013-01-05 21:09:00,
2013-01-05 13:24:00,49.9,45.9,30.07,SE,138,5.0,5.0,86,0.00,,,0.00,WeatherCatV1.12B45,2013-01-05 21:24:00,
2013-01-05 13:39:00,49.6,45.9,30.07,SE,138,0.0,0.0,87,0.00,,,0.00,WeatherCatV1.12B45,2013-01-05 21:39:00,
2013-01-05 13:54:00,51.9,49.9,30.07,SE,138,0.0,0.0,93,0.00,,,0.00,WeatherCatV1.12B45,2013-01-05 21:54:00,
2013-01-05 14:09:00,50.3,46.6,30.07,SE,138,0.0,0.0,87,0.00,,,0.00,WeatherCatV1.12B45,2013-01-05 22:09:00,
2013-01-05 14:24:00,49.7,45.7,30.06,SE,138,0.0,0.0,86,0.00,,,0.00,WeatherCatV1.12B45,2013-01-05 22:24:00,
2013-01-05 14:39:00,49.6,45.9,30.05,SE,138,0.0,0.0,87,0.00,,,0.00,WeatherCatV1.12B45,2013-01-05 22:39:00,
2013-01-05 14:54:00,49.1,46.3,30.05,SE,138,0.0,0.0,90,0.00,,,0.01,WeatherCatV1.12B45,2013-01-05 22:54:00,
2013-01-05 15:09:00,49.0,46.5,30.05,SE,138,0.0,1.0,91,0.00,,,0.02,WeatherCatV1.12B45,2013-01-05 23:09:00,
2013-01-05 15:24:00,48.8,46.6,30.04,SE,138,0.0,0.0,92,0.14,,,0.04,WeatherCatV1.12B45,2013-01-05 23:24:00,
2013-01-05 15:39:00,48.9,46.7,30.04,SE,138,0.0,0.0,92,0.10,,,0.06,WeatherCatV1.12B45,2013-01-05 23:39:00,
2013-01-05 15:54:00,49.4,47.7,30.03,SE,138,0.0,0.0,94,0.04,,,0.07,WeatherCatV1.12B45,2013-01-05 23:54:00,
2013-01-05 16:09:00,51.3,49.3,30.04,SE,138,0.0,0.0,93,0.06,,,0.08,WeatherCatV1.12B45,2013-01-06 00:09:00,
2013-01-05 16:24:00,53.6,50.1,30.03,SE,138,0.0,1.0,88,0.04,,,0.09,WeatherCatV1.12B45,2013-01-06 00:24:00,
2013-01-05 16:39:00,51.2,48.7,30.03,SE,138,0.0,1.0,91,0.00,,,0.10,WeatherCatV1.12B45,2013-01-06 00:39:00,
2013-01-05 16:54:00,53.0,49.8,30.03,SE,138,0.0,0.0,89,0.00,,,0.11,WeatherCatV1.12B45,2013-01-06 00:54:00,
2013-01-05 17:09:00,58.3,57.7,30.03,SE,138,0.0,0.0,98,0.23,,,0.14,WeatherCatV1.12B45,2013-01-06 01:09:00,
2013-01-05 17:24:00,56.6,51.8,30.03,SE,138,0.0,0.0,84,0.06,,,0.15,WeatherCatV1.12B45,2013-01-06 01:24:00,
2013-01-05 17:39:00,57.0,54.1,30.02,SE,138,0.0,1.0,90,0.11,,,0.18,WeatherCatV1.12B45,2013-01-06 01:39:00,
2013-01-05 17:54:00,55.1,49.4,30.02,SE,138,0.0,0.0,81,0.05,,,0.19,WeatherCatV1.12B45,2013-01-06 01:54:00,
2013-01-05 18:09:00,51.5,47.1,30.01,SE,138,1.0,4.0,85,0.05,,,0.20,WeatherCatV1.12B45,2013-01-06 02:09:00,
2013-01-05 18:24:00,48.6,46.4,30.01,SE,138,2.0,2.0,92,0.12,,,0.22,WeatherCatV1.12B45,2013-01-06 02:24:00,
2013-01-05 18:39:00,48.2,46.6,30.00,SE,138,0.0,0.0,94,0.15,,,0.26,WeatherCatV1.12B45,2013-01-06 02:39:00,
2013-01-05 18:54:00,49.2,48.4,30.00,SE,138,0.0,0.0,97,0.12,,,0.28,WeatherCatV1.12B45,2013-01-06 02:54:00,
2013-01-05 19:09:00,48.1,46.7,30.00,ESE,104,2.0,4.0,95,0.04,,,0.28,WeatherCatV1.12B45,2013-01-06 03:09:00,
2013-01-05 19:24:00,47.8,46.7,30.00,ESE,104,0.0,1.0,96,0.00,,,0.29,WeatherCatV1.12B45,2013-01-06 03:24:00,
2013-01-05 19:39:00,47.7,46.6,30.00,ESE,106,0.0,0.0,96,0.05,,,0.30,WeatherCatV1.12B45,2013-01-06 03:39:00,
2013-01-05 19:54:00,48.1,47.0,30.01,SSE,160,0.0,0.0,96,0.04,,,0.31,WeatherCatV1.12B45,2013-01-06 03:54:00,
2013-01-05 20:09:00,48.4,47.3,30.00,SSE,161,0.0,0.0,96,0.00,,,0.31,WeatherCatV1.12B45,2013-01-06 04:09:00,
2013-01-05 20:24:00,47.9,46.8,30.00,SSE,161,0.0,0.0,96,0.06,,,0.33,WeatherCatV1.12B45,2013-01-06 04:24:00,
2013-01-05 20:39:00,50.0,49.5,30.00,SSE,160,0.0,1.0,98,0.06,,,0.34,WeatherCatV1.12B45,2013-01-06 04:39:00,
2013-01-05 20:54:00,51.4,50.6,30.00,SSE,161,0.0,0.0,97,0.00,,,0.34,WeatherCatV1.12B45,2013-01-06 04:54:00,
2013-01-05 21:09:00,49.2,47.5,30.00,SSE,161,0.0,0.0,94,0.00,,,0.34,WeatherCatV1.12B45,2013-01-06 05:09:00,
2013-01-05 21:24:00,48.0,46.4,30.00,NNE,23,3.0,4.0,94,0.00,,,0.34,WeatherCatV1.12B45,2013-01-06 05:24:00,
2013-01-05 21:39:00,49.0,47.6,30.00,NNE,19,1.0,3.0,95,0.00,,,0.34,WeatherCatV1.12B45,2013-01-06 05:39:00,
2013-01-05 21:54:00,48.6,47.8,30.00,NNE,19,2.0,2.0,97,0.00,,,0.34,WeatherCatV1.12B45,2013-01-06 05:54:00,
2013-01-05 22:09:00,47.6,46.0,29.99,NNE,12,2.0,3.0,94,0.00,,,0.34,WeatherCatV1.12B45,2013-01-06 06:09:00,
2013-01-05 22:24:00,46.7,45.3,29.99,NNW,336,1.0,2.0,95,0.00,,,0.34,WeatherCatV1.12B45,2013-01-06 06:24:00,
2013-01-05 22:39:00,47.4,46.3,30.00,NNW,335,2.0,5.0,96,0.00,,,0.34,WeatherCatV1.12B45,2013-01-06 06:39:00,
2013-01-05 22:54:00,49.6,48.5,29.99,NNW,339,0.0,3.0,96,0.00,,,0.34,WeatherCatV1.12B45,2013-01-06 06:54:00,
2013-01-05 23:09:00,48.2,47.9,30.00,ESE,110,0.0,4.0,99,0.00,,,0.35,WeatherCatV1.12B45,2013-01-06 07:09:00,
2013-01-05 23:24:00,47.2,45.8,30.00,SE,126,0.0,1.0,95,0.00,,,0.35,WeatherCatV1.12B45,2013-01-06 07:24:00,
2013-01-05 23:35:00,47.2,46.1,29.99,SE,126,1.0,0.0,96,0.00,,,0.00,WeatherCatV1.12B45,2013-01-06 07:35:00,
2013-01-05 23:39:00,47.5,46.4,29.99,SE,126,0.0,0.0,96,0.00,,,0.35,WeatherCatV1.12B45,2013-01-06 07:39:00,
2013-01-05 23:40:00,47.5,46.4,29.99,SE,126,0.0,0.0,96,0.00,,,0.00,WeatherCatV1.12B45,2013-01-06 07:40:00,
2013-01-05 23:45:00,47.4,46.3,29.99,SE,126,0.0,0.0,96,0.00,,,0.00,WeatherCatV1.12B45,2013-01-06 07:45:00,
2013-01-05 23:50:00,47.4,46.3,29.98,SE,126,0.0,1.0,96,0.00,,,0.00,WeatherCatV1.12B45,2013-01-06 07:50:00,
2013-01-05 23:55:00,47.4,46.3,29.98,SE,126,0.0,1.0,96,0.00,,,0.00,WeatherCatV1.12B45,2013-01-06 07:55:00,